Le Grand, CA (95333)

4:28 PM PDT on August 02, 2015 (GMT -0700)
Northeast Merced | | Change Station
CLOSE
Current Station
Personal Weather Station
Location: Merced, CA
Elevation: 154 ft
Nearby Weather Stations

Elev 154 ft 37.32 °N, 120.45 °W | Updated 18 seconds ago

Clear
Clear
92.9 °F
Feels Like 94 °F
N
3.1
Wind Variable Wind from NW
Gusts 8.5 mph

Today
High -- | Low -- °F
--% Chance of Precip.
Yesterday
High -- | Low -- °F
Precip. -- in
6:06 AM 8:07 PM
Waning Gibbous, 91% visible
Pressure 29.81 in
Visibility 10.0 miles
Clouds Clear
Heat Index 94 °F
Dew Point 63 °F
Humidity 37%
Rainfall 0.00 in
Snow Depth Not available.
UV 7 out of 12
Pollen 5.70 out of 12
Air Quality Not available.
Flu Activity Not available.
METAR KMCE 022253Z AUTO 33011KT 10SM CLR 33/14 A2982 RMK AO2 SLP094 T03330139

More Conditions Fewer Conditions

Pressure 29.81 in
Visibility 10.0 miles
Clouds Clear
Heat Index 94 °F
Dew Point 63 °F
Humidity 37%
Rainfall 0.00 in
Snow Depth Not available.
UV 7 out of 12
Pollen 5.70 out of 12
Air Quality Not available.
Flu Activity Not available.
METAR KMCE 022253Z AUTO 33011KT 10SM CLR 33/14 A2982 RMK AO2 SLP094 T03330139

More Conditions Fewer Conditions

10-Day Weather Forecast

×

Almanac

Astronomy

Aug. 02, 2015 Rise Set
Actual Time
Civil Twilight
Nautical Twilight
Astronomical Twilight
Moon
Length of Visible Light
Length of Day
Tomorrow will be .
, % of the Moon is Illuminated

Today's Extremes

State Highs State Lows

Community

WunderPhotos

Upload Photos

1,843,408 photos uploaded!

WunderBlogs® & News

Nearby

Air Quality

  Air Quality AQ Index Pollutant
Not available.

Snow Depth

Station Depth Elevation

Earthquake Activity

City Distance Mag. Time & Date
Minimum magnitude displayed is 2.5.

Coastal Water Temperatures

Place Temperature

Stations

Nearby Weather Stations

Station Location Temp. Windchill Dew Point Humidity Wind Precip. Elev Updated Type